Bookmark and Share
Track history (hours):
 

Carrier Princess

Last reported at 2014-Apr-17 09:33 UTC. Time now 2014-Apr-17 09:42 UTC.
Position N 49°07' W 123°08'.

Length 112 m; draft 3 m.

Type: Cargo ship. MMSI: 316003656.

NotesDate/timePositionNaut miles runAvg speedWind from/ knotsBaromVisibWave heightAir tempDewpointWater temp
2014-Apr-17 09:33N 49°07' W 123°08'5 4.6
2014-Apr-17 08:33N 49°09' W 123°02'0 0.0
2014-Apr-17 07:33N 49°09' W 123°02'9 8.9
2014-Apr-17 06:34N 49°07' W 123°16'1212.0
2014-Apr-17 05:34N 49°10' W 123°34'1212.3
2014-Apr-17 04:33N 49°12' W 123°52'3 3.5
2014-Apr-17 03:33N 49°10' W 123°56'1 0.8
2014-Apr-17 02:33N 49°10' W 123°55'1111.4
2014-Apr-17 01:33N 49°11' W 123°37'1313.5
2014-Apr-17 00:33N 49°06' W 123°18'1110.7
2014-Apr-16 23:34N 49°09' W 123°02'0 0.0
2014-Apr-16 22:34N 49°09' W 123°02'6 5.6
2014-Apr-16 21:34N 49°07' W 123°10'8 8.2
2014-Apr-16 20:34N 49°01' W 123°19'1111.0
2014-Apr-16 19:33N 48°50' W 123°21'9 9.2
2014-Apr-16 18:33N 48°41' W 123°24'0 0.0
2014-Apr-16 17:33N 48°41' W 123°24'0 0.0
2014-Apr-16 16:33N 48°41' W 123°24'0 0.0
2014-Apr-16 15:33N 48°41' W 123°24'0 0.0
2014-Apr-16 14:33N 48°41' W 123°24'0 0.0
2014-Apr-16 13:33N 48°41' W 123°24'0 0.0
2014-Apr-16 12:33N 48°41' W 123°24'4 4.0
2014-Apr-16 11:33N 48°45' W 123°21'1212.1
2014-Apr-16 10:33N 48°57' W 123°19'1211.8
2014-Apr-16 09:33N 49°08' W 123°13'7 7.0
2014-Apr-16 08:34N 49°09' W 123°02'0 0.0
2014-Apr-16 07:33N 49°09' W 123°02'8 8.5
2014-Apr-16 06:34N 49°08' W 123°15'1110.7
2014-Apr-16 05:34N 49°09' W 123°31'1212.3
2014-Apr-16 04:33N 49°13' W 123°49'5 4.9
2014-Apr-16 03:26N 49°10' W 123°56'0 0.4
2014-Apr-16 02:34N 49°10' W 123°55'1211.8
2014-Apr-16 01:33N 49°11' W 123°37'1313.2
2014-Apr-16 00:33N 49°06' W 123°19'1111.0
2014-Apr-15 23:33N 49°09' W 123°02'0 0.2
2014-Apr-15 22:34N 49°09' W 123°02'6 5.8
2014-Apr-15 21:33N 49°07' W 123°11'8 8.4
2014-Apr-15 20:33N 49°01' W 123°19'1111.3
2014-Apr-15 19:33N 48°49' W 123°20'8 8.5
2014-Apr-15 18:33N 48°41' W 123°24'0 0.0
2014-Apr-15 17:33N 48°41' W 123°24'0 0.0
2014-Apr-15 16:33N 48°41' W 123°24'0 0.0
2014-Apr-15 15:33N 48°41' W 123°24'0 0.0
2014-Apr-15 14:33N 48°41' W 123°24'0 0.0
2014-Apr-15 12:34N 48°41' W 123°24'0 0.0
2014-Apr-15 11:34N 48°41' W 123°24'6 6.1
2014-Apr-15 10:34N 48°47' W 123°21'1413.8
2014-Apr-15 09:34N 49°01' W 123°20'1211.7
2014-Apr-15 08:34N 49°07' W 123°05'3 2.6
2014-Apr-15 07:34N 49°09' W 123°02'0 0.0
2014-Apr-15 06:34N 49°09' W 123°02'9 9.2
2014-Apr-15 05:34N 49°07' W 123°16'2512.4
2014-Apr-15 03:34N 49°12' W 123°53'2 2.2
2014-Apr-15 02:34N 49°10' W 123°56'1 0.7
2014-Apr-15 01:34N 49°10' W 123°55'1110.8
2014-Apr-15 00:34N 49°11' W 123°38'1312.7
2014-Apr-14 23:33N 49°06' W 123°20'1111.2
2014-Apr-14 22:34N 49°08' W 123°03'1 1.0
2014-Apr-14 21:34N 49°09' W 123°02'0 0.1
2014-Apr-14 20:34N 49°09' W 123°02'0 0.0
2014-Apr-14 19:34N 49°09' W 123°02'0 0.0
2014-Apr-14 18:34N 49°09' W 123°02'0 0.0
2014-Apr-14 17:34N 49°09' W 123°02'0 0.0
2014-Apr-14 16:34N 49°09' W 123°02'0 0.0
2014-Apr-14 15:34N 49°09' W 123°02'0 0.0
2014-Apr-14 14:34N 49°09' W 123°02'0 0.0
2014-Apr-14 13:34N 49°09' W 123°02'0 0.0
2014-Apr-14 11:34N 49°09' W 123°02'0 0.0
2014-Apr-14 10:34N 49°09' W 123°02'0 0.0
2014-Apr-14 09:34N 49°09' W 123°02'0 0.0
2014-Apr-14 08:34N 49°09' W 123°02'0 0.0
2014-Apr-14 07:34N 49°09' W 123°02'0 0.0
2014-Apr-14 06:34N 49°09' W 123°02'0 0.0
2014-Apr-14 05:33N 49°09' W 123°02'0 0.0
2014-Apr-13 22:33N 49°09' W 123°02'0 0.0
2014-Apr-13 21:34N 49°09' W 123°02'0 0.0
2014-Apr-13 20:34N 49°09' W 123°02'0 0.0
2014-Apr-13 19:34N 49°09' W 123°02'0 0.0
2014-Apr-13 18:33N 49°09' W 123°02'0 0.0
2014-Apr-13 17:33N 49°09' W 123°02'0 0.0
2014-Apr-13 16:33N 49°09' W 123°02'0 0.0
2014-Apr-13 15:33N 49°09' W 123°02'6 5.9
2014-Apr-13 14:33N 49°07' W 123°11'1010.3
2014-Apr-13 13:33N 48°58' W 123°19'1212.1
2014-Apr-13 12:33N 48°46' W 123°21'5 5.1
2014-Apr-13 11:33N 48°41' W 123°24'0 0.0
2014-Apr-13 10:33N 48°41' W 123°24'4 4.3
2014-Apr-13 09:33N 48°45' W 123°21'9 9.3
2014-Apr-13 08:34N 48°54' W 123°18'1010.1
2014-Apr-13 07:33N 49°04' W 123°20'1211.5
2014-Apr-13 06:33N 49°08' W 123°03'1 1.0
2014-Apr-13 05:33N 49°09' W 123°02'0 0.0
2014-Apr-13 04:33N 49°09' W 123°02'0 0.0
2014-Apr-13 03:33N 49°09' W 123°02'0 0.0
2014-Apr-13 02:33N 49°09' W 123°02'0 0.0
2014-Apr-13 01:33N 49°09' W 123°02'0 0.0
2014-Apr-13 00:33N 49°09' W 123°02'0 0.0
2014-Apr-12 23:33N 49°09' W 123°02'0 0.0
2014-Apr-12 22:33N 49°09' W 123°02'0 0.0
2014-Apr-12 21:33N 49°09' W 123°02'0 0.0
2014-Apr-12 20:33N 49°09' W 123°02'0 0.0
2014-Apr-12 19:33N 49°09' W 123°02'0 0.0
2014-Apr-12 18:33N 49°09' W 123°02'0 0.0
2014-Apr-12 17:33N 49°09' W 123°02'0 0.0
2014-Apr-12 16:33N 49°09' W 123°02'0 0.0
2014-Apr-12 15:33N 49°09' W 123°02'0 0.1
2014-Apr-12 14:33N 49°09' W 123°02'0 0.0
2014-Apr-12 13:33N 49°09' W 123°02'0 0.0
2014-Apr-12 12:33N 49°09' W 123°02'0 0.0
2014-Apr-12 11:33N 49°09' W 123°02'0 0.0
2014-Apr-12 10:33N 49°09' W 123°02'0 0.0
2014-Apr-12 09:33N 49°09' W 123°02'0 0.0
2014-Apr-12 08:33N 49°09' W 123°02'0 0.0
2014-Apr-12 07:33N 49°09' W 123°02'6 6.4
2014-Apr-12 06:33N 49°07' W 123°12'1211.7
2014-Apr-12 05:33N 49°08' W 123°30'1312.8
2014-Apr-12 04:33N 49°13' W 123°48'6 6.1
2014-Apr-12 03:33N 49°10' W 123°56'0 0.1
2014-Apr-12 02:33N 49°10' W 123°56'1111.5
2014-Apr-12 01:33N 49°11' W 123°38'1313.1
2014-Apr-12 00:33N 49°06' W 123°19'1111.5
2014-Apr-11 23:34N 49°09' W 123°02'0 0.1
2014-Apr-11 22:33N 49°09' W 123°02'4 3.9
2014-Apr-11 21:33N 49°07' W 123°07'9 8.6
2014-Apr-11 20:33N 49°03' W 123°19'1111.4
2014-Apr-11 19:33N 48°51' W 123°21'1010.2
2014-Apr-11 18:33N 48°41' W 123°24'0 0.0
2014-Apr-11 17:33N 48°41' W 123°24'0 0.0
2014-Apr-11 16:33N 48°41' W 123°24'0 0.0
2014-Apr-11 15:33N 48°41' W 123°24'0 0.0
2014-Apr-11 14:33N 48°41' W 123°24'0 0.0
2014-Apr-11 13:33N 48°41' W 123°24'0 0.0
2014-Apr-11 12:33N 48°41' W 123°24'2 1.9
2014-Apr-11 11:34N 48°43' W 123°24'1312.9
2014-Apr-11 10:33N 48°56' W 123°18'1212.5
2014-Apr-11 09:33N 49°08' W 123°14'8 8.0
2014-Apr-11 08:33N 49°09' W 123°02'0 0.0
2014-Apr-11 07:33N 49°09' W 123°02'8 7.8
2014-Apr-11 06:34N 49°08' W 123°14'1010.3
2014-Apr-11 05:33N 49°08' W 123°30'1312.9
2014-Apr-11 04:33N 49°13' W 123°48'6 6.0
2014-Apr-11 03:33N 49°10' W 123°56'0 0.3
2014-Apr-11 02:33N 49°10' W 123°55'10 9.9
2014-Apr-11 01:33N 49°12' W 123°40'1312.8
2014-Apr-11 00:33N 49°07' W 123°22'1312.9
2014-Apr-10 23:33N 49°09' W 123°03'0 0.4
2014-Apr-10 22:33N 49°09' W 123°02'5 4.5
2014-Apr-10 21:33N 49°06' W 123°08'9 8.6
2014-Apr-10 20:34N 49°01' W 123°18'1211.5
2014-Apr-10 19:34N 48°50' W 123°20'9 8.6
2014-Apr-10 18:33N 48°41' W 123°24'0 0.0
2014-Apr-10 17:33N 48°41' W 123°24'0 0.0
2014-Apr-10 16:33N 48°41' W 123°24'0 0.0
2014-Apr-10 15:33N 48°41' W 123°24'0 0.0
2014-Apr-10 14:33N 48°41' W 123°24'0 0.0
2014-Apr-10 13:33N 48°41' W 123°24'0 0.0
2014-Apr-10 12:33N 48°41' W 123°24'2 2.0
2014-Apr-10 11:34N 48°43' W 123°24'1414.0
2014-Apr-10 10:34N 48°57' W 123°19'1211.5
2014-Apr-10 09:33N 49°08' W 123°13'7 7.4
2014-Apr-10 08:33N 49°09' W 123°02'0 0.0
2014-Apr-10 07:33N 49°09' W 123°02'8 7.6
2014-Apr-10 06:33N 49°08' W 123°14'1211.6
2014-Apr-10 05:33N 49°09' W 123°31'1212.5
2014-Apr-10 04:33N 49°13' W 123°49'5 5.3
2014-Apr-10 03:33N 49°10' W 123°56'0 0.1
2014-Apr-10 02:33N 49°10' W 123°56'1111.2
2014-Apr-10 01:33N 49°12' W 123°39'1313.3
2014-Apr-10 00:33N 49°06' W 123°20'1212.0
2014-Apr-09 23:34N 49°09' W 123°02'0 0.1
2014-Apr-09 22:34N 49°09' W 123°02'5 4.7
2014-Apr-09 21:33N 49°06' W 123°08'9 9.3
2014-Apr-09 20:33N 49°01' W 123°20'1211.7
2014-Apr-09 19:33N 48°49' W 123°20'8 8.2
2014-Apr-09 18:33N 48°41' W 123°24'0 0.0
2014-Apr-09 17:27N 48°41' W 123°24'0 0.0
2014-Apr-09 16:30N 48°41' W 123°24'0 0.0
2014-Apr-09 15:30N 48°41' W 123°24'0 0.0
2014-Apr-09 14:21N 48°41' W 123°24'0 0.0
2014-Apr-09 13:30N 48°41' W 123°24'0 0.0
2014-Apr-09 12:33N 48°41' W 123°24'2 2.1
2014-Apr-09 11:34N 48°43' W 123°24'1312.7
2014-Apr-09 10:33N 48°56' W 123°19'1212.5
2014-Apr-09 09:34N 49°08' W 123°14'8 8.0
2014-Apr-09 08:33N 49°09' W 123°02'0 0.0
2014-Apr-09 07:33N 49°09' W 123°02'7 7.1
2014-Apr-09 06:33N 49°08' W 123°13'1212.3
2014-Apr-09 05:34N 49°09' W 123°32'1212.2
2014-Apr-09 04:34N 49°13' W 123°49'5 5.3
2014-Apr-09 03:33N 49°10' W 123°56'0 0.1
2014-Apr-09 02:33N 49°10' W 123°56'1110.9
2014-Apr-09 01:33N 49°12' W 123°39'1312.6
2014-Apr-09 00:33N 49°07' W 123°21'1312.6
2014-Apr-08 23:33N 49°09' W 123°02'0 0.2
2014-Apr-08 22:33N 49°09' W 123°02'5 5.2
2014-Apr-08 21:34N 49°07' W 123°09'9 8.8
2014-Apr-08 20:34N 49°01' W 123°20'1111.1
2014-Apr-08 19:34N 48°50' W 123°20'9 8.8
2014-Apr-08 18:33N 48°41' W 123°24'0 0.0
2014-Apr-08 17:33N 48°41' W 123°24'0 0.0
2014-Apr-08 16:33N 48°41' W 123°24'0 0.0
2014-Apr-08 15:33N 48°41' W 123°24'0 0.0
2014-Apr-08 14:33N 48°41' W 123°24'0 0.0
2014-Apr-08 13:33N 48°41' W 123°24'0 0.0
2014-Apr-08 12:33N 48°41' W 123°24'3 2.8
2014-Apr-08 11:34N 48°43' W 123°21'1413.9
2014-Apr-08 10:33N 48°57' W 123°19'1211.5
2014-Apr-08 09:33N 49°07' W 123°11'6 5.8
2014-Apr-08 08:33N 49°09' W 123°02'0 0.0
2014-Apr-08 07:33N 49°09' W 123°02'7 6.9
2014-Apr-08 06:34N 49°08' W 123°12'1312.6
2014-Apr-08 05:33N 49°09' W 123°32'1212.4
2014-Apr-08 04:33N 49°13' W 123°50'5 5.0
2014-Apr-08 03:33N 49°10' W 123°56'0 0.0
2014-Apr-08 02:34N 49°10' W 123°56'1010.1
2014-Apr-08 01:33N 49°12' W 123°41'1313.3
2014-Apr-08 00:34N 49°07' W 123°22'1312.6
2014-Apr-07 23:34N 49°09' W 123°03'0 0.4
2014-Apr-07 22:33N 49°09' W 123°02'0 0.1
2014-Apr-07 21:34N 49°09' W 123°02'0 0.0
2014-Apr-07 20:33N 49°09' W 123°02'0 0.0
2014-Apr-07 19:33N 49°09' W 123°02'0 0.0
2014-Apr-07 17:34N 49°09' W 123°02'0 0.0
2014-Apr-07 16:34N 49°09' W 123°02'0 0.0
2014-Apr-07 15:33N 49°09' W 123°02'0 0.0
2014-Apr-07 14:33N 49°09' W 123°02'0 0.0
2014-Apr-07 13:34N 49°09' W 123°02'0 0.0
2014-Apr-07 12:34N 49°09' W 123°02'0 0.0
2014-Apr-07 11:34N 49°09' W 123°02'0 0.0
2014-Apr-07 10:33N 49°09' W 123°02'0 0.0
2014-Apr-07 09:34N 49°09' W 123°02'  

Dump ship's entire track history

sailing weather and tide predictions

Carrier Princess — CZ3582 — position and weather